Coral Ruby — 3ERR6 — position and weather

sailwx.info

Track history (hours):
 
Tides and Currents Weather Stations Pressure Air Temp Water Temp Dewpoint Dewpoint Depression Visibility Wind Speed Wind Dir Waves Ship Positions

Coral Ruby

Last reported at 2017-Mar-20 13:33 UTC. Time now 2017-Mar-29 18:51 UTC.
Position S 26°56' E 153°53'.
Warning: this ship's position is 9 days out of date.

Length 225 m; draft 14 m.

Type: Ship. MMSI: 370150000.

Date/timePositionNaut miles runAvg speedWind from/ knotsBaromVisibWave heightAir tempDewpointWater temp
2017-Mar-20 13:33S 26°56' E 153°53'1110.8
2017-Mar-20 12:30S 27°07' E 153°53'3110.6
2017-Mar-20 09:33S 27°38' E 153°51'1110.4
2017-Mar-20 08:29S 27°49' E 153°50'1010.2
2017-Mar-20 07:32S 27°59' E 153°49'27010.0
2017-Mar-19 04:33S 32°23' E 152°44'9 9.4
2017-Mar-19 03:33S 32°31' E 152°39'10 9.9
2017-Mar-19 02:34S 32°39' E 152°31'1010.4
2017-Mar-19 01:34S 32°46' E 152°23'1010.4
2017-Mar-19 00:34S 32°54' E 152°15'1110.5
2017-Mar-18 23:34S 32°58' E 152°03'10 9.3
2017-Mar-18 22:30S 32°58' E 151°51'5 5.1
2017-Mar-18 21:34S 32°55' E 151°47'2 1.9
2017-Mar-18 20:32S 32°53' E 151°46'0 0.0
2017-Mar-18 19:32S 32°53' E 151°46'0 0.0
2017-Mar-18 18:32S 32°53' E 151°46'0 0.0
2017-Mar-18 17:32S 32°53' E 151°46'0 0.0
2017-Mar-18 15:32S 32°53' E 151°46'0 0.0
2017-Mar-18 14:17S 32°53' E 151°46'0 0.0
2017-Mar-18 13:32S 32°53' E 151°46'0 0.0
2017-Mar-18 12:32S 32°53' E 151°46'0 0.0
2017-Mar-18 11:32S 32°53' E 151°46'0 0.0
2017-Mar-18 10:26S 32°53' E 151°46'0 0.0
2017-Mar-18 08:32S 32°53' E 151°46'0 0.0
2017-Mar-18 07:32S 32°53' E 151°46'0 0.0
2017-Mar-18 06:32S 32°53' E 151°46'0 0.0
2017-Mar-18 05:32S 32°53' E 151°46'0 0.0
2017-Mar-18 04:32S 32°53' E 151°46'2 2.2
2017-Mar-18 03:30S 32°55' E 151°48'7 7.0
2017-Mar-18 02:31S 33°01' E 151°52'6 6.3
2017-Mar-18 01:33S 33°07' E 151°51'8 2.5
2017-Mar-17 22:32S 33°13' E 151°55'7 7.5
2017-Mar-17 21:33S 33°06' E 151°53'4 1.8
2017-Mar-17 19:33S 33°06' E 151°57'5 4.9
2017-Mar-17 18:33S 33°09' E 152°02'5 5.3
2017-Mar-17 17:32S 33°11' E 152°08'5 4.8
2017-Mar-17 16:33S 33°08' E 152°12'4 3.7
2017-Mar-17 15:34S 33°05' E 152°14'6 5.7
2017-Mar-17 14:34S 33°09' E 152°10'6 5.6
2017-Mar-17 13:34S 33°13' E 152°06'3 1.8
2017-Mar-17 12:10S 33°14' E 152°03'3 5.6
2017-Mar-17 11:33S 33°12' E 152°06'5 5.1
2017-Mar-17 10:33S 33°09' E 152°11'1 1.3
2017-Mar-17 09:33S 33°09' E 152°13'8 7.6
2017-Mar-17 08:33S 33°11' E 152°04'6 5.9
2017-Mar-17 07:34S 33°06' E 152°01'6 5.5
2017-Mar-17 06:33S 33°01' E 151°59'5 5.2
2017-Mar-17 05:32S 32°56' E 152°02'7 6.9
2017-Mar-17 04:33S 32°52' E 152°09'4 3.7
2017-Mar-17 03:33S 32°56' E 152°07'6 5.6
2017-Mar-17 02:34S 33°00' E 152°03'7 7.5
2017-Mar-17 01:34S 32°57' E 151°54'2 2.1
2017-Mar-17 00:34S 32°59' E 151°56'5 5.4
2017-Mar-16 23:33S 32°58' E 152°02'5 5.0
2017-Mar-16 22:34S 32°59' E 152°08'2 1.7
2017-Mar-16 21:33S 32°58' E 152°10'3 3.0
2017-Mar-16 20:27S 32°58' E 152°06'2 1.8
2017-Mar-16 19:30S 32°60' E 152°05'4 3.8
2017-Mar-16 18:33S 33°00' E 152°01'4 4.0
2017-Mar-16 17:33S 33°04' E 152°00'1111.2
2017-Mar-16 16:33S 33°10' E 152°11'1310.1
2017-Mar-16 15:16S 33°21' E 152°19'3 3.0
2017-Mar-16 14:24S 33°20' E 152°22'4 4.6
2017-Mar-16 13:33S 33°16' E 152°24'5 4.7
2017-Mar-16 12:33S 33°12' E 152°26'5 4.8
2017-Mar-16 11:33S 33°08' E 152°28'5 4.8
2017-Mar-16 10:32S 33°03' E 152°31'5 4.7
2017-Mar-16 09:24S 32°59' E 152°34'4 4.7
2017-Mar-16 08:30S 32°55' E 152°37'5 4.7
2017-Mar-16 07:30S 32°51' E 152°39'5 4.8
2017-Mar-16 06:33S 32°47' E 152°42'5 4.8
2017-Mar-16 05:33S 32°42' E 152°44'5 4.9
2017-Mar-16 04:33S 32°38' E 152°46'5 4.9
2017-Mar-16 03:33S 32°33' E 152°48'  
2017-Mar-12 19:21S 28°07' E 153°47'2 2.7
2017-Mar-12 18:30S 28°05' E 153°47'2 2.3
2017-Mar-12 17:33S 28°03' E 153°48'2 2.2
2017-Mar-12 16:33S 28°01' E 153°48'4 1.9
2017-Mar-12 14:21S 27°57' E 153°50'1 1.5
2017-Mar-12 13:27S 27°55' E 153°50'1 1.3
2017-Mar-12 12:33S 27°54' E 153°51'6 0.9
2017-Mar-12 06:34S 27°49' E 153°53'1 0.7
2017-Mar-12 05:30S 27°49' E 153°54'0 0.5
2017-Mar-12 04:33S 27°48' E 153°54'0 0.4
2017-Mar-12 03:33S 27°48' E 153°54'1 0.5
2017-Mar-12 02:30S 27°47' E 153°53'1 0.5
2017-Mar-12 01:21S 27°47' E 153°53'1 0.7
2017-Mar-12 00:27S 27°46' E 153°52'1 0.8
2017-Mar-11 23:06S 27°46' E 153°52'0 0.8
2017-Mar-11 22:33S 27°45' E 153°51'1 0.8
2017-Mar-11 21:33S 27°44' E 153°51'1 0.6
2017-Mar-11 20:34S 27°44' E 153°51'1 1.0
2017-Mar-11 19:33S 27°43' E 153°51'10 9.9
2017-Mar-11 18:33S 27°33' E 153°51'1613.0
2017-Mar-11 17:20S 27°17' E 153°52'1312.8
2017-Mar-11 16:19S 27°04' E 153°53'1113.0
2017-Mar-11 15:29S 26°53' E 153°53'  
Track history (hours):
 
Tides and Currents Weather Stations Pressure Air Temp Water Temp Dewpoint Dewpoint Depression Visibility Wind Speed Wind Dir Waves Ship Positions

Coral Ruby

Last reported at 2017-Mar-20 13:33 UTC. Time now 2017-Mar-29 18:51 UTC.
Position S 26°56' E 153°53'.
Warning: this ship's position is 9 days out of date.

Length 225 m; draft 14 m.

Type: Ship. MMSI: 370150000.

Date/timePositionNaut miles runAvg speedWind from/ knotsBaromVisibWave heightAir tempDewpointWater temp
2017-Mar-20 13:33S 26°56' E 153°53'1110.8
2017-Mar-20 12:30S 27°07' E 153°53'3110.6
2017-Mar-20 09:33S 27°38' E 153°51'1110.4
2017-Mar-20 08:29S 27°49' E 153°50'1010.2
2017-Mar-20 07:32S 27°59' E 153°49'27010.0
2017-Mar-19 04:33S 32°23' E 152°44'9 9.4
2017-Mar-19 03:33S 32°31' E 152°39'10 9.9
2017-Mar-19 02:34S 32°39' E 152°31'1010.4
2017-Mar-19 01:34S 32°46' E 152°23'1010.4
2017-Mar-19 00:34S 32°54' E 152°15'1110.5
2017-Mar-18 23:34S 32°58' E 152°03'10 9.3
2017-Mar-18 22:30S 32°58' E 151°51'5 5.1
2017-Mar-18 21:34S 32°55' E 151°47'2 1.9
2017-Mar-18 20:32S 32°53' E 151°46'0 0.0
2017-Mar-18 19:32S 32°53' E 151°46'0 0.0
2017-Mar-18 18:32S 32°53' E 151°46'0 0.0
2017-Mar-18 17:32S 32°53' E 151°46'0 0.0
2017-Mar-18 15:32S 32°53' E 151°46'0 0.0
2017-Mar-18 14:17S 32°53' E 151°46'0 0.0
2017-Mar-18 13:32S 32°53' E 151°46'0 0.0
2017-Mar-18 12:32S 32°53' E 151°46'0 0.0
2017-Mar-18 11:32S 32°53' E 151°46'0 0.0
2017-Mar-18 10:26S 32°53' E 151°46'0 0.0
2017-Mar-18 08:32S 32°53' E 151°46'0 0.0
2017-Mar-18 07:32S 32°53' E 151°46'0 0.0
2017-Mar-18 06:32S 32°53' E 151°46'0 0.0
2017-Mar-18 05:32S 32°53' E 151°46'0 0.0
2017-Mar-18 04:32S 32°53' E 151°46'2 2.2
2017-Mar-18 03:30S 32°55' E 151°48'7 7.0
2017-Mar-18 02:31S 33°01' E 151°52'6 6.3
2017-Mar-18 01:33S 33°07' E 151°51'8 2.5
2017-Mar-17 22:32S 33°13' E 151°55'7 7.5
2017-Mar-17 21:33S 33°06' E 151°53'4 1.8
2017-Mar-17 19:33S 33°06' E 151°57'5 4.9
2017-Mar-17 18:33S 33°09' E 152°02'5 5.3
2017-Mar-17 17:32S 33°11' E 152°08'5 4.8
2017-Mar-17 16:33S 33°08' E 152°12'4 3.7
2017-Mar-17 15:34S 33°05' E 152°14'6 5.7
2017-Mar-17 14:34S 33°09' E 152°10'6 5.6
2017-Mar-17 13:34S 33°13' E 152°06'3 1.8
2017-Mar-17 12:10S 33°14' E 152°03'3 5.6
2017-Mar-17 11:33S 33°12' E 152°06'5 5.1
2017-Mar-17 10:33S 33°09' E 152°11'1 1.3
2017-Mar-17 09:33S 33°09' E 152°13'8 7.6
2017-Mar-17 08:33S 33°11' E 152°04'6 5.9
2017-Mar-17 07:34S 33°06' E 152°01'6 5.5
2017-Mar-17 06:33S 33°01' E 151°59'5 5.2
2017-Mar-17 05:32S 32°56' E 152°02'7 6.9
2017-Mar-17 04:33S 32°52' E 152°09'4 3.7
2017-Mar-17 03:33S 32°56' E 152°07'6 5.6
2017-Mar-17 02:34S 33°00' E 152°03'7 7.5
2017-Mar-17 01:34S 32°57' E 151°54'2 2.1
2017-Mar-17 00:34S 32°59' E 151°56'5 5.4
2017-Mar-16 23:33S 32°58' E 152°02'5 5.0
2017-Mar-16 22:34S 32°59' E 152°08'2 1.7
2017-Mar-16 21:33S 32°58' E 152°10'3 3.0
2017-Mar-16 20:27S 32°58' E 152°06'2 1.8
2017-Mar-16 19:30S 32°60' E 152°05'4 3.8
2017-Mar-16 18:33S 33°00' E 152°01'4 4.0
2017-Mar-16 17:33S 33°04' E 152°00'1111.2
2017-Mar-16 16:33S 33°10' E 152°11'1310.1
2017-Mar-16 15:16S 33°21' E 152°19'3 3.0
2017-Mar-16 14:24S 33°20' E 152°22'4 4.6
2017-Mar-16 13:33S 33°16' E 152°24'5 4.7
2017-Mar-16 12:33S 33°12' E 152°26'5 4.8
2017-Mar-16 11:33S 33°08' E 152°28'5 4.8
2017-Mar-16 10:32S 33°03' E 152°31'5 4.7
2017-Mar-16 09:24S 32°59' E 152°34'4 4.7
2017-Mar-16 08:30S 32°55' E 152°37'5 4.7
2017-Mar-16 07:30S 32°51' E 152°39'5 4.8
2017-Mar-16 06:33S 32°47' E 152°42'5 4.8
2017-Mar-16 05:33S 32°42' E 152°44'5 4.9
2017-Mar-16 04:33S 32°38' E 152°46'5 4.9
2017-Mar-16 03:33S 32°33' E 152°48'  
2017-Mar-12 19:21S 28°07' E 153°47'2 2.7
2017-Mar-12 18:30S 28°05' E 153°47'2 2.3
2017-Mar-12 17:33S 28°03' E 153°48'2 2.2
2017-Mar-12 16:33S 28°01' E 153°48'4 1.9
2017-Mar-12 14:21S 27°57' E 153°50'1 1.5
2017-Mar-12 13:27S 27°55' E 153°50'1 1.3
2017-Mar-12 12:33S 27°54' E 153°51'6 0.9
2017-Mar-12 06:34S 27°49' E 153°53'1 0.7
2017-Mar-12 05:30S 27°49' E 153°54'0 0.5
2017-Mar-12 04:33S 27°48' E 153°54'0 0.4
2017-Mar-12 03:33S 27°48' E 153°54'1 0.5
2017-Mar-12 02:30S 27°47' E 153°53'1 0.5
2017-Mar-12 01:21S 27°47' E 153°53'1 0.7
2017-Mar-12 00:27S 27°46' E 153°52'1 0.8
2017-Mar-11 23:06S 27°46' E 153°52'0 0.8
2017-Mar-11 22:33S 27°45' E 153°51'1 0.8
2017-Mar-11 21:33S 27°44' E 153°51'1 0.6
2017-Mar-11 20:34S 27°44' E 153°51'1 1.0
2017-Mar-11 19:33S 27°43' E 153°51'10 9.9
2017-Mar-11 18:33S 27°33' E 153°51'1613.0
2017-Mar-11 17:20S 27°17' E 153°52'1312.8
2017-Mar-11 16:19S 27°04' E 153°53'1113.0
2017-Mar-11 15:29S 26°53' E 153°53'  

Dump ship's entire track history